createdAt,value
2018-12-19T00:00:06.783Z,4.20
2018-12-19T00:02:09.723Z,5.78
2018-12-19T00:04:12.764Z,6.10
2018-12-19T00:06:16.434Z,6.10
2018-12-19T00:08:19.405Z,6.90
2018-12-19T00:10:22.414Z,5.28
2018-12-19T00:12:26.095Z,5.07
2018-12-19T00:14:29.220Z,4.97
2018-12-19T00:16:32.140Z,4.75
2018-12-19T00:18:35.063Z,5.05
2018-12-19T00:20:38.798Z,4.12
2018-12-19T00:22:41.703Z,3.97
2018-12-19T00:24:44.627Z,3.50
2018-12-19T00:26:48.430Z,4.07
2018-12-19T00:28:52.110Z,4.13
2018-12-19T00:30:55.022Z,3.60
2018-12-19T00:32:57.994Z,3.85
2018-12-19T00:35:01.689Z,4.15
2018-12-19T00:37:05.355Z,4.07
2018-12-19T00:39:09.674Z,3.67
2018-12-19T00:41:11.230Z,3.80
2018-12-19T00:43:14.193Z,4.03
2018-12-19T00:45:17.147Z,4.10
2018-12-19T00:47:20.088Z,3.60
2018-12-19T00:49:22.999Z,4.20
2018-12-19T00:51:26.071Z,4.18
2018-12-19T00:53:29.769Z,4.18
2018-12-19T00:55:33.499Z,4.03
2018-12-19T00:57:36.535Z,4.30
2018-12-19T00:59:39.459Z,3.95
2018-12-19T01:01:42.379Z,4.65
2018-12-19T01:03:45.403Z,4.87
2018-12-19T01:05:49.118Z,3.70
2018-12-19T01:07:52.050Z,3.80
2018-12-19T01:09:54.995Z,4.20
2018-12-19T01:11:57.911Z,3.67
2018-12-19T01:14:00.824Z,4.00
2018-12-19T01:16:04.538Z,3.95
2018-12-19T01:18:08.782Z,4.15
2018-12-19T01:20:11.679Z,4.15
2018-12-19T01:22:15.331Z,4.07
2018-12-19T01:24:18.408Z,4.30
2018-12-19T01:26:22.588Z,3.80
2018-12-19T01:28:25.683Z,4.35
2018-12-19T01:30:28.591Z,3.42
2018-12-19T01:32:32.281Z,3.78
2018-12-19T01:34:36.089Z,4.32
2018-12-19T01:36:39.791Z,3.90
2018-12-19T01:38:43.488Z,4.28
2018-12-19T01:40:47.324Z,3.80
2018-12-19T01:42:50.257Z,3.60
2018-12-19T01:44:53.171Z,4.60
2018-12-19T01:46:56.137Z,3.90
2018-12-19T01:49:00.820Z,4.25
2018-12-19T01:51:03.767Z,3.87
2018-12-19T01:53:06.704Z,3.70
2018-12-19T01:55:09.628Z,3.80
2018-12-19T01:57:12.610Z,3.90
2018-12-19T01:59:15.687Z,4.45
2018-12-19T02:01:30.021Z,3.60
2018-12-19T02:13:02.571Z,3.43
2018-12-19T02:15:05.501Z,3.90
2018-12-19T02:17:08.631Z,4.10
2018-12-19T02:19:12.342Z,3.83
2018-12-19T02:21:15.893Z,5.35
2018-12-19T02:23:18.907Z,3.50
2018-12-19T02:25:22.623Z,3.87
2018-12-19T02:27:25.544Z,3.90
2018-12-19T02:29:28.469Z,3.83
2018-12-19T02:31:32.182Z,3.90
2018-12-19T02:33:35.097Z,3.67
2018-12-19T02:35:38.006Z,3.33
2018-12-19T02:37:41.024Z,3.50
2018-12-19T02:39:43.940Z,3.50
2018-12-19T02:41:46.858Z,3.22
2018-12-19T02:43:49.757Z,3.73
2018-12-19T02:45:53.559Z,3.55
2018-12-19T02:47:57.732Z,4.40
2018-12-19T02:50:00.625Z,4.30
2018-12-19T02:52:03.517Z,4.00
2018-12-19T02:54:07.157Z,4.90
2018-12-19T02:56:10.091Z,4.83
2018-12-19T02:58:14.221Z,4.12
2018-12-19T03:00:17.345Z,6.00
2018-12-19T03:02:20.617Z,4.72
2018-12-19T03:04:23.489Z,4.90
2018-12-19T03:06:26.375Z,4.55
2018-12-19T03:08:29.271Z,4.62
2018-12-19T03:10:32.191Z,5.55
2018-12-19T03:12:35.236Z,4.37
2018-12-19T03:14:38.119Z,4.40
2018-12-19T03:16:41.017Z,4.18
2018-12-19T03:18:43.942Z,4.70
2018-12-19T03:20:46.790Z,3.78
2018-12-19T03:22:49.711Z,4.25
2018-12-19T03:24:53.346Z,4.12
2018-12-19T03:26:56.238Z,5.03
2018-12-19T03:28:59.750Z,4.78
2018-12-19T03:31:02.636Z,4.32
2018-12-19T03:33:05.517Z,3.70
2018-12-19T03:35:08.391Z,4.15
2018-12-19T03:37:11.583Z,4.50
2018-12-19T03:39:14.456Z,4.35
2018-12-19T03:41:17.332Z,4.30
2018-12-19T03:43:20.229Z,4.90
2018-12-19T03:45:23.102Z,4.37
2018-12-19T03:47:26.260Z,3.70
2018-12-19T03:49:29.143Z,4.00
2018-12-19T03:51:32.523Z,3.50
2018-12-19T03:53:35.406Z,4.43
2018-12-19T03:55:38.843Z,4.35
2018-12-19T03:57:41.731Z,4.28
2018-12-19T03:59:44.643Z,4.87
2018-12-19T04:01:47.592Z,3.85
2018-12-19T04:03:50.463Z,4.12
2018-12-19T04:05:53.360Z,4.05
2018-12-19T04:07:56.245Z,4.25
2018-12-19T04:09:59.115Z,4.32
2018-12-19T04:12:02.031Z,4.28
2018-12-19T04:14:05.688Z,4.15
2018-12-19T04:16:08.579Z,4.60
2018-12-19T04:18:12.976Z,4.20
2018-12-19T04:20:15.847Z,4.20
2018-12-19T04:22:18.744Z,3.73
2018-12-19T04:24:21.820Z,3.50
2018-12-19T04:26:25.508Z,4.30
2018-12-19T04:28:28.513Z,4.70
2018-12-19T04:30:31.383Z,5.75
2018-12-19T04:32:34.794Z,5.85
2018-12-19T04:34:37.672Z,6.10
2018-12-19T04:36:40.546Z,4.68
2018-12-19T04:38:43.466Z,4.62
2018-12-19T04:40:47.103Z,4.93
2018-12-19T04:42:50.074Z,4.45
2018-12-19T04:44:52.977Z,4.90
2018-12-19T04:46:55.963Z,4.00
2018-12-19T04:48:58.866Z,4.25
2018-12-19T04:51:01.741Z,5.13
2018-12-19T04:53:05.120Z,5.00
2018-12-19T04:55:08.423Z,5.25
2018-12-19T04:57:11.298Z,4.87
2018-12-19T04:59:14.187Z,4.65
2018-12-19T05:01:17.067Z,4.03
2018-12-19T05:03:19.959Z,3.28
2018-12-19T05:05:23.861Z,4.05
2018-12-19T05:07:26.866Z,3.57
2018-12-19T05:09:31.166Z,4.33
2018-12-19T05:11:34.804Z,4.07
2018-12-19T05:13:37.691Z,3.87
2018-12-19T05:15:40.642Z,4.67
2018-12-19T05:17:44.276Z,4.63
2018-12-19T05:19:47.172Z,5.13
2018-12-19T05:21:50.079Z,4.40
2018-12-19T05:23:53.051Z,5.23
2018-12-19T05:25:55.976Z,4.75
2018-12-19T05:27:58.851Z,5.28
2018-12-19T05:30:01.747Z,4.72
2018-12-19T05:32:04.614Z,4.35
2018-12-19T05:34:07.534Z,4.35
2018-12-19T05:36:10.436Z,4.68
2018-12-19T05:38:14.886Z,4.55
2018-12-19T05:40:18.979Z,5.20
2018-12-19T05:42:21.435Z,4.57
2018-12-19T05:44:24.352Z,5.18
2018-12-19T05:46:28.027Z,4.75
2018-12-19T05:48:32.455Z,4.87
2018-12-19T05:50:36.123Z,6.15
2018-12-19T05:52:39.007Z,4.60
2018-12-19T05:54:41.903Z,5.18
2018-12-19T05:56:44.895Z,5.90
2018-12-19T05:58:48.994Z,5.70
2018-12-19T06:00:53.403Z,5.43
2018-12-19T06:02:56.279Z,5.70
2018-12-19T06:04:59.192Z,5.77
2018-12-19T06:07:02.662Z,5.20
2018-12-19T06:09:06.268Z,5.95
2018-12-19T06:11:09.267Z,7.70
2018-12-19T06:13:13.262Z,5.65
2018-12-19T06:15:16.188Z,6.20
2018-12-19T06:17:19.866Z,5.80
2018-12-19T06:19:22.796Z,6.87
2018-12-19T06:21:25.659Z,6.18
2018-12-19T06:23:28.531Z,6.57
2018-12-19T06:25:31.451Z,6.68
2018-12-19T06:27:34.316Z,5.12
2018-12-19T06:29:37.231Z,5.12
2018-12-19T06:31:40.888Z,5.80
2018-12-19T06:33:43.771Z,6.65
2018-12-19T06:35:46.667Z,6.25
2018-12-19T06:37:49.559Z,6.25
2018-12-19T06:39:54.028Z,6.55
2018-12-19T06:41:56.930Z,6.07
2018-12-19T06:44:00.069Z,6.10
2018-12-19T06:46:03.727Z,6.37
2018-12-19T06:48:06.666Z,5.72
2018-12-19T06:50:09.570Z,5.70
2018-12-19T06:52:12.492Z,5.68
2018-12-19T06:54:16.879Z,5.37
2018-12-19T06:56:19.775Z,5.60
2018-12-19T06:58:22.655Z,5.70
2018-12-19T07:00:25.642Z,5.78
2018-12-19T07:02:28.523Z,4.93
2018-12-19T07:04:31.456Z,4.90
2018-12-19T07:06:35.923Z,4.78
2018-12-19T07:08:38.799Z,4.70
2018-12-19T07:10:41.708Z,4.60
2018-12-19T07:12:44.695Z,5.20
2018-12-19T07:14:48.507Z,4.10
2018-12-19T07:16:51.439Z,3.80
2018-12-19T07:18:54.470Z,3.53
2018-12-19T07:20:58.115Z,2.80
2018-12-19T07:23:01.008Z,3.30
2018-12-19T07:25:03.918Z,3.70
2018-12-19T07:27:07.571Z,3.83
2018-12-19T07:29:11.272Z,3.42
2018-12-19T07:31:14.152Z,3.87
2018-12-19T07:33:17.037Z,4.50
2018-12-19T07:35:19.949Z,4.00
2018-12-19T07:37:22.927Z,6.15
2018-12-19T07:39:25.895Z,4.62
2018-12-19T07:41:28.788Z,6.00
2018-12-19T07:43:33.173Z,4.63
2018-12-19T07:45:36.396Z,5.65
2018-12-19T07:47:39.312Z,4.75
2018-12-19T07:49:42.975Z,5.50
2018-12-19T07:51:46.038Z,4.25
2018-12-19T07:53:49.503Z,4.70
2018-12-19T07:55:53.022Z,4.55
2018-12-19T07:57:56.036Z,5.25
2018-12-19T07:59:59.688Z,3.67
2018-12-19T08:02:02.563Z,4.30
2018-12-19T08:04:05.478Z,4.10
2018-12-19T08:06:08.351Z,4.03
2018-12-19T08:08:11.255Z,3.60
2018-12-19T08:10:14.143Z,4.23
2018-12-19T08:12:17.766Z,3.10
2018-12-19T08:14:21.636Z,3.60
2018-12-19T08:16:24.527Z,3.57
2018-12-19T08:18:27.451Z,3.33
2018-12-19T08:20:30.391Z,3.20
2018-12-19T08:22:34.189Z,3.50
2018-12-19T08:24:37.073Z,3.47
2018-12-19T08:26:40.063Z,3.60
2018-12-19T08:28:42.961Z,2.67
2018-12-19T08:30:47.115Z,4.07
2018-12-19T08:32:49.999Z,2.83
2018-12-19T08:34:53.004Z,3.95
2018-12-19T08:36:56.022Z,3.58
2018-12-19T08:38:59.720Z,3.67
2018-12-19T08:41:03.366Z,3.40
2018-12-19T08:43:06.247Z,3.58
2018-12-19T08:45:09.927Z,3.45
2018-12-19T08:47:12.831Z,3.50
2018-12-19T08:49:16.050Z,3.60
2018-12-19T08:51:19.694Z,3.50
2018-12-19T08:53:22.596Z,3.97
2018-12-19T08:55:25.480Z,3.80
2018-12-19T08:57:28.358Z,4.00
2018-12-19T08:59:32.136Z,3.67
2018-12-19T09:01:35.568Z,3.53
2018-12-19T09:03:39.371Z,4.60
2018-12-19T09:05:42.465Z,4.60
2018-12-19T09:07:45.342Z,3.90
2018-12-19T09:09:48.338Z,4.35
2018-12-19T09:11:52.037Z,4.17
2018-12-19T09:13:55.028Z,4.03
2018-12-19T09:15:58.807Z,4.53
2018-12-19T09:18:01.707Z,5.05
2018-12-19T09:20:05.358Z,5.03
2018-12-19T09:22:08.259Z,4.60
2018-12-19T09:24:11.259Z,5.55
2018-12-19T09:26:15.200Z,5.30
2018-12-19T09:28:18.078Z,4.70
2018-12-19T09:30:20.975Z,5.45
2018-12-19T09:32:23.867Z,4.50
2018-12-19T09:34:27.433Z,4.47
2018-12-19T09:36:30.995Z,4.10
2018-12-19T09:38:34.251Z,4.63
2018-12-19T09:40:37.131Z,5.40
2018-12-19T09:42:40.159Z,4.43
2018-12-19T09:44:43.031Z,4.22
2018-12-19T09:46:45.951Z,4.90
2018-12-19T09:48:48.990Z,4.47
2018-12-19T09:50:52.715Z,4.20
2018-12-19T09:52:55.627Z,4.22
2018-12-19T09:54:58.872Z,4.53
2018-12-19T09:57:02.524Z,4.15
2018-12-19T09:59:05.408Z,3.97
2018-12-19T10:01:09.352Z,4.37
2018-12-19T10:03:12.227Z,4.00
2018-12-19T10:05:15.215Z,3.60
2018-12-19T10:07:18.139Z,3.85
2018-12-19T10:09:21.048Z,3.60
2018-12-19T10:11:23.914Z,4.00
2018-12-19T10:13:26.907Z,4.80
2018-12-19T10:15:29.792Z,3.97
2018-12-19T10:17:32.694Z,3.90
2018-12-19T10:19:35.619Z,4.40
2018-12-19T10:21:39.256Z,4.30
2018-12-19T10:23:42.152Z,3.85
2018-12-19T10:25:45.064Z,4.20
2018-12-19T10:27:48.795Z,4.40
2018-12-19T10:29:51.680Z,4.15
2018-12-19T10:31:54.576Z,3.37
2018-12-19T10:33:58.344Z,3.70
2018-12-19T10:36:02.000Z,3.65
2018-12-19T10:38:04.934Z,4.20
2018-12-19T10:40:07.815Z,3.60
2018-12-19T10:42:10.707Z,3.92
2018-12-19T10:44:13.703Z,4.80
2018-12-19T10:46:16.575Z,4.23
2018-12-19T10:48:19.531Z,4.30
2018-12-19T10:50:23.204Z,4.37
2018-12-19T10:52:26.859Z,5.00
2018-12-19T10:54:29.758Z,4.45
2018-12-19T10:56:43.294Z,5.40
2018-12-19T10:59:02.708Z,5.23
2018-12-19T11:02:56.694Z,4.10
2018-12-19T11:12:56.511Z,4.37
2018-12-19T11:22:54.988Z,3.97
2018-12-19T11:32:52.108Z,3.67
2018-12-19T11:37:24.591Z,5.30
2018-12-19T11:39:27.531Z,4.40
2018-12-19T11:41:30.396Z,4.93
2018-12-19T11:43:33.590Z,4.93
2018-12-19T11:45:36.636Z,5.20
2018-12-19T11:47:39.574Z,5.20
2018-12-19T11:49:42.540Z,4.82
2018-12-19T11:51:45.536Z,4.90
2018-12-19T11:53:49.903Z,5.78
2018-12-19T11:55:52.788Z,5.50
2018-12-19T11:57:56.010Z,5.20
2018-12-19T11:59:59.783Z,5.22
2018-12-19T12:02:02.667Z,5.30
2018-12-19T12:04:05.795Z,5.82
2018-12-19T12:06:09.443Z,5.35
2018-12-19T12:08:12.320Z,6.00
2018-12-19T12:10:15.207Z,5.53
2018-12-19T12:12:18.107Z,4.97
2018-12-19T12:14:21.236Z,4.95
2018-12-19T12:16:25.521Z,4.90
2018-12-19T12:18:28.533Z,5.28
2018-12-19T12:20:32.195Z,4.50
2018-12-19T12:22:35.220Z,4.62
2018-12-19T12:24:38.915Z,4.35
2018-12-19T12:26:42.988Z,4.13
2018-12-19T12:28:45.900Z,4.37
2018-12-19T12:30:49.540Z,4.20
2018-12-19T12:32:52.486Z,3.83
2018-12-19T12:34:57.187Z,4.23
2018-12-19T12:37:00.064Z,5.47
2018-12-19T12:39:02.937Z,3.70
2018-12-19T12:41:05.901Z,3.70
2018-12-19T12:43:08.803Z,4.63
2018-12-19T12:45:11.685Z,4.10
2018-12-19T12:47:14.803Z,5.07
2018-12-19T12:49:18.451Z,4.90
2018-12-19T12:51:21.486Z,4.63
2018-12-19T12:53:25.391Z,5.13
2018-12-19T12:55:29.079Z,4.37
2018-12-19T12:57:31.947Z,4.47
2018-12-19T12:59:35.618Z,4.20
2018-12-19T13:01:38.550Z,4.37
2018-12-19T13:03:42.208Z,5.00
2018-12-19T13:05:45.233Z,5.53
2018-12-19T13:07:48.855Z,4.23
2018-12-19T13:09:51.817Z,4.97
2018-12-19T13:11:58.746Z,4.73
2018-12-19T13:13:59.624Z,4.90
2018-12-19T13:16:02.605Z,4.57
2018-12-19T13:18:07.047Z,4.73
2018-12-19T13:20:09.920Z,4.30
2018-12-19T13:22:12.873Z,4.60
2018-12-19T13:24:16.552Z,4.47
2018-12-19T13:26:19.424Z,4.40
2018-12-19T13:28:22.351Z,4.73
2018-12-19T13:30:25.636Z,4.00
2018-12-19T13:32:30.007Z,4.67
2018-12-19T13:34:32.876Z,4.57
2018-12-19T13:36:36.200Z,4.33
2018-12-19T13:38:39.087Z,5.03
2018-12-19T13:40:42.231Z,4.83
2018-12-19T13:42:45.159Z,4.50
2018-12-19T13:44:48.875Z,5.10
2018-12-19T13:46:52.507Z,4.77
2018-12-19T13:48:55.558Z,4.13
2018-12-19T13:50:59.196Z,4.70
2018-12-19T13:53:02.138Z,4.07
2018-12-19T13:55:05.868Z,4.83
2018-12-19T13:57:08.796Z,5.62
2018-12-19T13:59:11.666Z,4.80
2018-12-19T14:01:14.745Z,5.05
2018-12-19T14:03:17.668Z,5.17
2018-12-19T14:05:21.311Z,5.93
2018-12-19T14:07:24.459Z,5.33
2018-12-19T14:09:27.347Z,5.00
2018-12-19T14:11:31.084Z,5.00
2018-12-19T14:13:34.940Z,5.00
2018-12-19T14:15:38.559Z,6.03
2018-12-19T14:17:41.510Z,4.90
2018-12-19T14:19:44.419Z,4.90
2018-12-19T14:21:48.099Z,4.80
2018-12-19T14:23:50.994Z,5.23
2018-12-19T14:25:54.168Z,4.60
2018-12-19T14:27:57.809Z,5.40
2018-12-19T14:30:00.743Z,5.50
2018-12-19T14:32:04.695Z,5.87
2018-12-19T14:34:07.588Z,5.50
2018-12-19T14:36:10.493Z,4.53
2018-12-19T14:38:14.208Z,5.43
2018-12-19T14:40:17.097Z,4.40
2018-12-19T14:42:20.047Z,5.37
2018-12-19T14:44:23.140Z,4.27
2018-12-19T14:46:26.011Z,4.50
2018-12-19T14:48:28.943Z,4.50
2018-12-19T14:50:32.112Z,5.27
2018-12-19T14:52:35.743Z,5.80
2018-12-19T14:54:38.623Z,4.90
2018-12-19T14:56:42.312Z,4.37
2018-12-19T14:58:45.202Z,4.80
2018-12-19T15:00:48.123Z,5.90
2018-12-19T15:02:51.015Z,4.97
2018-12-19T15:04:53.991Z,5.10
2018-12-19T15:06:56.872Z,5.60
2018-12-19T15:09:00.089Z,5.23
2018-12-19T15:11:03.707Z,4.60
2018-12-19T15:13:06.660Z,4.60
2018-12-19T15:15:09.652Z,4.87
2018-12-19T15:17:13.969Z,5.40
2018-12-19T15:19:16.159Z,5.00
2018-12-19T15:21:19.191Z,4.82
2018-12-19T15:23:22.835Z,4.93
2018-12-19T15:25:25.714Z,5.37
2018-12-19T15:27:28.707Z,5.33
2018-12-19T15:29:31.611Z,4.80
2018-12-19T15:31:35.304Z,5.90
2018-12-19T15:33:38.311Z,5.03
2018-12-19T15:35:41.217Z,4.97
2018-12-19T15:37:44.312Z,4.30
2018-12-19T15:39:47.305Z,4.50
2018-12-19T15:41:50.189Z,5.72
2018-12-19T15:43:53.158Z,6.30
2018-12-19T15:45:56.875Z,5.33
2018-12-19T15:47:59.791Z,5.03
2018-12-19T15:50:02.696Z,4.57
2018-12-19T15:52:06.801Z,5.17
2018-12-19T15:54:10.507Z,4.82
2018-12-19T15:56:13.445Z,5.03
2018-12-19T15:58:16.346Z,4.50
2018-12-19T16:00:19.285Z,4.57
2018-12-19T16:02:22.916Z,4.73
2018-12-19T16:04:25.852Z,5.17
2018-12-19T16:06:29.507Z,5.37
2018-12-19T16:08:32.392Z,5.10
2018-12-19T16:10:35.313Z,5.70
2018-12-19T16:12:39.352Z,5.50
2018-12-19T16:14:41.139Z,5.30
2018-12-19T16:16:44.044Z,5.05
2018-12-19T16:18:47.776Z,4.90
2018-12-19T16:20:50.845Z,5.18
2018-12-19T16:22:54.625Z,4.55
2018-12-19T16:24:58.309Z,5.07
2018-12-19T16:27:01.213Z,5.00
2018-12-19T16:29:04.916Z,3.80
2018-12-19T16:31:08.591Z,5.55
2018-12-19T16:33:11.475Z,6.28
2018-12-19T16:35:14.491Z,5.12
2018-12-19T16:37:17.386Z,4.80
2018-12-19T16:39:20.275Z,5.97
2018-12-19T16:41:23.182Z,5.55
2018-12-19T16:43:26.116Z,6.40
2018-12-19T16:45:29.790Z,5.07
2018-12-19T16:47:32.700Z,5.33
2018-12-19T16:49:36.330Z,4.60
2018-12-19T16:51:39.438Z,6.70
2018-12-19T16:53:42.330Z,5.65
2018-12-19T16:55:46.923Z,5.53
2018-12-19T16:57:49.866Z,5.40
2018-12-19T16:59:53.501Z,5.07
2018-12-19T17:01:56.401Z,4.70
2018-12-19T17:03:59.283Z,5.43
2018-12-19T17:06:02.967Z,6.13
2018-12-19T17:08:05.858Z,6.27
2018-12-19T17:10:08.738Z,6.10
2018-12-19T17:12:11.716Z,4.60
2018-12-19T17:14:14.583Z,5.67
2018-12-19T17:16:17.518Z,5.78
2018-12-19T17:18:20.490Z,6.45
2018-12-19T17:20:24.166Z,7.35
2018-12-19T17:22:27.103Z,9.37
2018-12-19T17:24:35.795Z,7.60
2018-12-19T17:26:39.475Z,7.77
2018-12-19T17:28:43.928Z,6.75
2018-12-19T17:30:48.431Z,9.45
2018-12-19T17:32:52.104Z,7.62
2018-12-19T17:34:54.991Z,7.47
2018-12-19T17:36:57.904Z,8.23
2018-12-19T17:39:01.574Z,7.80
2018-12-19T17:41:05.071Z,6.33
2018-12-19T17:43:08.790Z,5.65
2018-12-19T17:45:13.221Z,5.55
2018-12-19T17:47:16.871Z,6.77
2018-12-19T17:49:19.807Z,5.77
2018-12-19T17:51:22.750Z,6.50
2018-12-19T17:53:25.699Z,5.20
2018-12-19T17:55:28.584Z,7.23
2018-12-19T17:57:31.482Z,6.68
2018-12-19T17:59:34.409Z,6.55
2018-12-19T18:01:38.050Z,6.15
2018-12-19T18:03:41.484Z,5.90
2018-12-19T18:05:44.359Z,5.55
2018-12-19T18:07:48.056Z,5.40
2018-12-19T18:09:50.939Z,5.90
2018-12-19T18:11:53.914Z,6.18
2018-12-19T18:13:56.814Z,5.27
2018-12-19T18:15:59.670Z,6.03
2018-12-19T18:18:02.615Z,5.80
2018-12-19T18:20:05.504Z,6.30
2018-12-19T18:22:08.415Z,6.22
2018-12-19T18:24:12.841Z,7.05
2018-12-19T18:26:15.715Z,6.80
2018-12-19T18:28:18.700Z,6.03
2018-12-19T18:30:22.399Z,6.00
2018-12-19T18:32:25.403Z,6.37
2018-12-19T18:34:29.093Z,6.03
2018-12-19T18:36:31.966Z,6.20
2018-12-19T18:38:34.855Z,5.37
2018-12-19T18:40:37.723Z,5.83
2018-12-19T18:42:40.727Z,4.80
2018-12-19T18:44:44.411Z,5.60
2018-12-19T18:46:47.287Z,5.10
2018-12-19T18:48:50.271Z,6.57
2018-12-19T18:50:53.156Z,6.63
2018-12-19T18:52:56.067Z,7.60
2018-12-19T18:54:59.016Z,7.07
2018-12-19T18:57:01.924Z,7.30
2018-12-19T18:59:05.605Z,7.40
2018-12-19T19:01:09.986Z,7.80
2018-12-19T19:03:12.950Z,7.03
2018-12-19T19:05:15.759Z,6.87
2018-12-19T19:07:18.656Z,7.30
2018-12-19T19:09:23.193Z,6.32
2018-12-19T19:11:26.846Z,8.15
2018-12-19T19:13:30.469Z,7.47
2018-12-19T19:15:33.348Z,7.22
2018-12-19T19:17:37.089Z,8.32
2018-12-19T19:19:40.740Z,8.15
2018-12-19T19:21:43.672Z,7.68
2018-12-19T19:23:47.315Z,7.65
2018-12-19T19:25:50.195Z,7.70
2018-12-19T19:27:53.069Z,8.50
2018-12-19T19:29:55.992Z,9.07
2018-12-19T19:31:59.647Z,7.93
2018-12-19T19:34:02.535Z,8.80
2018-12-19T19:36:05.507Z,6.90
2018-12-19T19:38:08.399Z,7.93
2018-12-19T19:40:11.297Z,7.53
2018-12-19T19:42:14.170Z,8.15
2018-12-19T19:44:17.065Z,8.18
2018-12-19T19:46:20.779Z,9.10
2018-12-19T19:48:24.448Z,7.50
2018-12-19T19:50:27.606Z,8.85
2018-12-19T19:52:30.507Z,8.70
2018-12-19T19:54:33.383Z,8.97
2018-12-19T19:56:36.271Z,10.75
2018-12-19T19:58:39.175Z,9.60
2018-12-19T20:00:42.056Z,8.00
2018-12-19T20:02:44.931Z,8.55
2018-12-19T20:04:48.019Z,8.18
2018-12-19T20:06:50.911Z,8.10
2018-12-19T20:08:54.573Z,9.77
2018-12-19T20:10:57.490Z,8.40
2018-12-19T20:13:01.591Z,7.50
2018-12-19T20:15:04.598Z,7.90
2018-12-19T20:17:07.580Z,6.95
2018-12-19T20:19:11.255Z,9.30
2018-12-19T20:21:14.363Z,7.32
2018-12-19T20:23:18.015Z,8.05
2018-12-19T20:25:21.032Z,8.45
2018-12-19T20:27:24.627Z,7.65
2018-12-19T20:29:28.302Z,6.78
2018-12-19T20:31:31.191Z,6.50
2018-12-19T20:33:34.187Z,7.07
2018-12-19T20:35:37.062Z,8.45
2018-12-19T20:37:39.954Z,7.50
2018-12-19T20:39:45.507Z,7.78
2018-12-19T20:41:48.587Z,7.60
2018-12-19T20:43:52.287Z,7.05
2018-12-19T20:45:55.978Z,7.37
2018-12-19T20:47:58.859Z,8.10
2018-12-19T20:50:03.040Z,7.53
2018-12-19T20:52:06.054Z,11.00
2018-12-19T20:54:08.954Z,11.53
2018-12-19T20:56:11.930Z,9.30
2018-12-19T20:58:15.002Z,8.10
2018-12-19T21:00:17.883Z,8.23
2018-12-19T21:02:21.016Z,7.85
2018-12-19T21:04:23.947Z,6.85
2018-12-19T21:06:26.847Z,7.40
2018-12-19T21:08:29.816Z,7.78
2018-12-19T21:10:32.828Z,8.15
2018-12-19T21:12:37.219Z,8.07
2018-12-19T21:14:40.110Z,6.80
2018-12-19T21:16:49.347Z,7.20
2018-12-19T21:18:53.543Z,7.07
2018-12-19T21:20:57.191Z,7.10
2018-12-19T21:23:00.314Z,7.32
2018-12-19T21:25:03.199Z,6.57
2018-12-19T21:27:06.085Z,6.80
2018-12-19T21:29:08.975Z,6.57
2018-12-19T21:31:12.667Z,6.72
2018-12-19T21:33:15.558Z,6.50
2018-12-19T21:35:18.663Z,5.80
2018-12-19T21:37:21.697Z,4.97
2018-12-19T21:39:25.282Z,5.05
2018-12-19T21:41:28.185Z,8.68
2018-12-19T21:43:31.102Z,6.32
2018-12-19T21:45:34.108Z,5.30
2018-12-19T21:47:38.308Z,5.62
2018-12-19T21:49:41.969Z,5.45
2018-12-19T21:51:45.012Z,4.57
2018-12-19T21:53:48.719Z,4.87
2018-12-19T21:55:52.330Z,6.10
2018-12-19T21:57:55.486Z,4.87
2018-12-19T21:59:59.871Z,4.60
2018-12-19T22:02:04.322Z,4.90
2018-12-19T22:04:07.211Z,4.47
2018-12-19T22:06:10.302Z,5.43
2018-12-19T22:08:13.922Z,5.07
2018-12-19T22:10:16.807Z,5.60
2018-12-19T22:12:19.706Z,4.80
2018-12-19T22:14:22.614Z,5.20
2018-12-19T22:16:31.288Z,5.60
2018-12-19T22:18:39.937Z,6.03
2018-12-19T22:20:43.054Z,5.07
2018-12-19T22:22:46.675Z,5.15
2018-12-19T22:24:49.584Z,4.82
2018-12-19T22:26:53.343Z,4.70
2018-12-19T22:28:56.338Z,4.53
2018-12-19T22:30:59.161Z,4.85
2018-12-19T22:33:02.936Z,4.72
2018-12-19T22:35:06.539Z,4.75
2018-12-19T22:37:09.509Z,5.93
2018-12-19T22:39:12.432Z,4.43
2018-12-19T22:41:15.336Z,5.60
2018-12-19T22:43:18.272Z,4.70
2018-12-19T22:45:21.167Z,4.60
2018-12-19T22:47:24.839Z,6.47
2018-12-19T22:49:27.771Z,4.87
2018-12-19T22:51:30.679Z,5.32
2018-12-19T22:53:33.585Z,5.80
2018-12-19T22:55:42.913Z,5.30
2018-12-19T22:57:53.992Z,4.63
2018-12-19T23:00:02.787Z,5.90
2018-12-19T23:02:17.230Z,4.95
2018-12-19T23:04:26.110Z,5.55
2018-12-19T23:06:35.731Z,6.82
2018-12-19T23:08:44.667Z,6.53
2018-12-19T23:10:54.558Z,5.87
2018-12-19T23:13:03.863Z,6.35
2018-12-19T23:15:12.790Z,6.35
2018-12-19T23:17:27.163Z,6.20
2018-12-19T23:19:35.991Z,5.28
2018-12-19T23:21:44.715Z,5.80
2018-12-19T23:23:54.272Z,5.82
2018-12-19T23:26:03.119Z,5.85
2018-12-19T23:28:13.614Z,5.78
2018-12-19T23:30:22.277Z,5.70
2018-12-19T23:32:31.166Z,6.40
2018-12-19T23:34:40.638Z,5.13
2018-12-19T23:36:49.246Z,5.50
2018-12-19T23:38:57.987Z,6.00
2018-12-19T23:41:06.899Z,6.03
2018-12-19T23:43:15.824Z,6.20
2018-12-19T23:45:24.413Z,6.22
2018-12-19T23:47:32.994Z,6.10
2018-12-19T23:49:41.851Z,5.95
2018-12-19T23:51:50.549Z,6.18
2018-12-19T23:53:59.413Z,5.80
2018-12-19T23:56:08.162Z,6.57
2018-12-19T23:58:16.900Z,6.63
